createdAt,value
2019-01-24T00:03:11.389Z,100534.73
2019-01-24T00:05:41.093Z,100539.41
2019-01-24T00:08:10.721Z,100535.39
2019-01-24T00:10:40.417Z,100541.28
2019-01-24T00:13:10.104Z,100540.71
2019-01-24T00:15:39.682Z,100539.67
2019-01-24T00:18:09.497Z,100540.72
2019-01-24T00:20:53.499Z,100539.22
2019-01-24T00:23:13.247Z,100544.52
2019-01-24T00:25:42.821Z,100541.91
2019-01-24T00:28:31.273Z,100542.47
2019-01-24T00:31:00.748Z,100544.78
2019-01-24T00:33:30.384Z,100547.59
2019-01-24T00:36:00.655Z,100548.61
2019-01-24T00:38:30.090Z,100554.45
2019-01-24T00:40:59.559Z,100556.21
2019-01-24T00:43:29.149Z,100549.33
2019-01-24T00:45:58.658Z,100551.39
2019-01-24T00:48:47.250Z,100561.50
2019-01-24T00:51:16.784Z,100557.02
2019-01-24T00:53:46.534Z,100563.61
2019-01-24T00:56:16.107Z,100567.14
2019-01-24T00:58:45.539Z,100563.32
2019-01-24T01:01:15.111Z,100562.31
2019-01-24T01:06:19.678Z,100571.84
2019-01-24T01:08:49.349Z,100564.41
2019-01-24T01:11:18.809Z,100565.33
2019-01-24T01:13:48.301Z,100569.61
2019-01-24T01:16:18.086Z,100577.41
2019-01-24T01:18:47.712Z,100579.05
2019-01-24T01:21:36.108Z,100577.66
2019-01-24T01:24:11.155Z,100570.27
2019-01-24T01:29:16.348Z,100572.94
2019-01-24T01:34:26.255Z,100577.83
2019-01-24T01:36:55.699Z,100584.56
2019-01-24T01:39:25.278Z,100582.13
2019-01-24T01:41:54.888Z,100583.59
2019-01-24T01:44:24.412Z,100580.27
2019-01-24T01:47:12.869Z,100583.78
2019-01-24T01:55:13.311Z,100594.64
2019-01-24T01:57:43.450Z,100586.17
2019-01-24T02:00:33.507Z,100586.63
2019-01-24T02:03:09.785Z,100591.37
2019-01-24T02:08:29.880Z,100597.19
2019-01-24T02:10:59.322Z,100593.45
2019-01-24T02:13:32.050Z,100595.09
2019-01-24T02:16:01.492Z,100599.53
2019-01-24T02:18:31.055Z,100596.02
2019-01-24T02:21:00.487Z,100597.77
2019-01-24T02:23:29.999Z,100598.61
2019-01-24T02:25:59.468Z,100599.69
2019-01-24T02:28:28.988Z,100601.53
2019-01-24T02:30:58.484Z,100605.16
2019-01-24T02:33:29.183Z,100609.59
2019-01-24T02:35:58.640Z,100605.61
2019-01-24T02:38:29.159Z,100607.83
2019-01-24T02:40:58.727Z,100608.13
2019-01-24T02:43:28.204Z,100607.45
2019-01-24T02:45:57.762Z,100609.28
2019-01-24T02:48:27.200Z,100611.96
2019-01-24T02:50:56.770Z,100603.22
2019-01-24T02:53:26.600Z,100604.13
2019-01-24T02:55:56.158Z,100610.33
2019-01-24T02:58:25.625Z,100618.95
2019-01-24T03:00:55.170Z,100623.38
2019-01-24T03:03:24.624Z,100633.16
2019-01-24T03:05:54.308Z,100633.88
2019-01-24T03:08:35.630Z,100632.28
2019-01-24T03:11:05.581Z,100633.34
2019-01-24T03:13:35.138Z,100635.03
2019-01-24T03:16:04.835Z,100628.46
2019-01-24T03:18:36.041Z,100629.22
2019-01-24T03:21:05.738Z,100633.96
2019-01-24T03:23:35.363Z,100638.00
2019-01-24T03:26:04.969Z,100637.16
2019-01-24T03:28:34.749Z,100635.72
2019-01-24T03:31:23.295Z,100638.69
2019-01-24T03:33:52.774Z,100638.88
2019-01-24T03:36:22.204Z,100636.81
2019-01-24T03:38:51.748Z,100634.37
2019-01-24T03:41:31.744Z,100644.83
2019-01-24T03:44:01.216Z,100642.38
2019-01-24T03:46:30.810Z,100642.77
2019-01-24T03:49:00.350Z,100642.38
2019-01-24T03:51:29.911Z,100642.84
2019-01-24T03:54:18.521Z,100647.64
2019-01-24T03:59:23.336Z,100648.36
2019-01-24T04:01:52.965Z,100651.09
2019-01-24T04:04:41.316Z,100652.92
2019-01-24T04:07:11.134Z,100656.62
2019-01-24T04:12:55.480Z,100656.52
2019-01-24T04:15:26.291Z,100653.16
2019-01-24T04:17:55.715Z,100660.74
2019-01-24T04:20:25.438Z,100656.08
2019-01-24T04:22:55.904Z,100655.24
2019-01-24T04:25:25.372Z,100656.47
2019-01-24T04:27:54.839Z,100661.66
2019-01-24T04:30:24.787Z,100662.50
2019-01-24T04:32:54.455Z,100667.30
2019-01-24T04:35:24.324Z,100667.90
2019-01-24T04:40:42.544Z,100675.86
2019-01-24T04:48:44.406Z,100679.75
2019-01-24T04:51:13.875Z,100674.78
2019-01-24T04:53:43.323Z,100685.39
2019-01-24T04:56:12.782Z,100688.30
2019-01-24T04:58:42.391Z,100690.44
2019-01-24T05:01:11.927Z,100696.08
2019-01-24T05:03:41.529Z,100691.49
2019-01-24T05:06:11.238Z,100693.24
2019-01-24T05:08:41.023Z,100694.55
2019-01-24T05:11:29.466Z,100694.61
2019-01-24T05:13:59.107Z,100694.23
2019-01-24T05:16:28.559Z,100697.20
2019-01-24T05:18:58.137Z,100705.44
2019-01-24T05:21:27.897Z,100701.94
2019-01-24T05:26:46.162Z,100709.05
2019-01-24T05:29:15.698Z,100707.75
2019-01-24T05:31:45.154Z,100712.48
2019-01-24T05:34:14.572Z,100712.87
2019-01-24T05:36:44.091Z,100717.11
2019-01-24T05:39:13.489Z,100722.69
2019-01-24T05:41:45.277Z,100714.83
2019-01-24T05:44:14.721Z,100713.54
2019-01-24T05:46:44.164Z,100719.63
2019-01-24T05:49:13.624Z,100724.37
2019-01-24T05:51:45.999Z,100722.30
2019-01-24T05:54:15.517Z,100720.79
2019-01-24T05:56:46.446Z,100723.20
2019-01-24T05:59:15.891Z,100723.80
2019-01-24T06:04:34.348Z,100722.36
2019-01-24T06:07:03.856Z,100725.41
2019-01-24T06:09:33.304Z,100724.11
2019-01-24T06:14:39.144Z,100725.20
2019-01-24T06:19:43.424Z,100725.34
2019-01-24T06:22:12.971Z,100728.78
2019-01-24T06:24:42.419Z,100726.85
2019-01-24T06:27:14.442Z,100737.33
2019-01-24T06:29:43.900Z,100742.13
2019-01-24T06:32:13.343Z,100743.80
2019-01-24T06:34:42.813Z,100755.77
2019-01-24T06:39:47.558Z,100750.95
2019-01-24T06:42:28.874Z,100751.16
2019-01-24T06:44:58.333Z,100754.89
2019-01-24T06:47:27.837Z,100763.71
2019-01-24T06:50:29.164Z,100768.25
2019-01-24T06:52:47.965Z,100771.92
2019-01-24T06:55:40.823Z,100768.30
2019-01-24T06:58:10.329Z,100773.61
2019-01-24T07:00:40.062Z,100767.13
2019-01-24T07:03:09.774Z,100772.19
2019-01-24T07:05:39.328Z,100777.69
2019-01-24T07:08:08.882Z,100771.92
2019-01-24T07:10:40.187Z,100778.40
2019-01-24T07:13:09.797Z,100791.30
2019-01-24T07:15:39.501Z,100789.44
2019-01-24T07:18:09.060Z,100784.64
2019-01-24T07:20:38.528Z,100789.63
2019-01-24T07:23:47.473Z,100791.25
2019-01-24T07:29:11.221Z,100793.41
2019-01-24T07:31:43.479Z,100799.30
2019-01-24T07:34:12.919Z,100802.05
2019-01-24T07:36:45.026Z,100803.46
2019-01-24T07:39:14.462Z,100804.31
2019-01-24T07:41:43.933Z,100806.02
2019-01-24T07:44:24.910Z,100812.97
2019-01-24T07:46:56.833Z,100802.13
2019-01-24T07:49:26.352Z,100812.45
2019-01-24T07:51:56.009Z,100815.98
2019-01-24T07:54:25.474Z,100813.53
2019-01-24T07:56:54.919Z,100815.24
2019-01-24T08:01:59.871Z,100824.88
2019-01-24T08:04:40.718Z,100816.30
2019-01-24T08:10:07.884Z,100825.85
2019-01-24T08:12:38.320Z,100827.84
2019-01-24T08:15:08.799Z,100823.38
2019-01-24T08:17:54.405Z,100833.86
2019-01-24T08:20:27.088Z,100830.13
2019-01-24T08:25:34.316Z,100831.30
2019-01-24T08:33:35.461Z,100844.69
2019-01-24T08:36:07.391Z,100839.09
2019-01-24T08:38:36.813Z,100842.96
2019-01-24T08:41:06.261Z,100847.55
2019-01-24T08:43:35.759Z,100844.41
2019-01-24T08:46:05.335Z,100851.38
2019-01-24T08:49:19.398Z,100847.63
2019-01-24T08:57:24.047Z,100855.16
2019-01-24T09:00:05.463Z,100857.23
2019-01-24T09:02:35.132Z,100864.27
2019-01-24T09:07:59.781Z,100867.15
2019-01-24T09:10:34.486Z,100873.72
2019-01-24T09:13:07.007Z,100871.44
2019-01-24T09:15:57.403Z,100874.20
2019-01-24T09:18:26.911Z,100869.12
2019-01-24T09:20:56.949Z,100875.52
2019-01-24T09:23:27.678Z,100872.38
2019-01-24T09:25:57.132Z,100876.59
2019-01-24T09:28:30.946Z,100878.20
2019-01-24T09:31:00.450Z,100880.30
2019-01-24T09:33:30.093Z,100885.55
2019-01-24T09:35:59.522Z,100887.35
2019-01-24T09:38:29.143Z,100886.16
2019-01-24T09:43:33.592Z,100891.20
2019-01-24T09:48:44.729Z,100885.91
2019-01-24T09:51:25.634Z,100890.27
2019-01-24T09:53:55.178Z,100889.78
2019-01-24T09:56:24.604Z,100894.98
2019-01-24T09:58:54.122Z,100894.61
2019-01-24T10:01:23.629Z,100897.94
2019-01-24T10:03:55.441Z,100897.20
2019-01-24T10:06:24.933Z,100894.08
2019-01-24T10:08:54.526Z,100896.50
2019-01-24T10:11:23.957Z,100895.72
2019-01-24T10:13:53.434Z,100900.47
2019-01-24T10:18:58.607Z,100895.66
2019-01-24T10:24:22.454Z,100901.39
2019-01-24T10:26:51.936Z,100899.98
2019-01-24T10:29:21.383Z,100899.37
2019-01-24T10:31:50.926Z,100901.84
2019-01-24T10:34:20.435Z,100894.70
2019-01-24T10:36:52.987Z,100892.30
2019-01-24T10:39:22.500Z,100882.78
2019-01-24T10:42:14.843Z,100885.33
2019-01-24T10:44:47.507Z,100884.82
2019-01-24T10:47:17.059Z,100886.12
2019-01-24T10:49:46.497Z,100891.06
2019-01-24T10:52:34.888Z,100887.16
2019-01-24T10:55:13.423Z,100886.58
2019-01-24T10:57:37.025Z,100887.79
2019-01-24T11:00:13.624Z,100893.30
2019-01-24T11:02:43.873Z,100891.54
2019-01-24T11:05:35.344Z,100889.61
2019-01-24T11:08:07.889Z,100889.73
2019-01-24T11:10:37.353Z,100892.78
2019-01-24T11:13:12.070Z,100897.08
2019-01-24T11:15:43.430Z,100899.43
2019-01-24T11:21:41.444Z,100899.45
2019-01-24T11:24:18.348Z,100898.75
2019-01-24T11:29:56.304Z,100902.50
2019-01-24T11:38:47.097Z,100903.09
2019-01-24T11:41:39.153Z,100900.25
2019-01-24T11:47:15.196Z,100897.13
2019-01-24T11:49:44.842Z,100896.91
2019-01-24T11:52:14.749Z,100892.08
2019-01-24T11:54:59.690Z,100896.38
2019-01-24T11:57:29.597Z,100896.27
2019-01-24T11:59:59.932Z,100902.25
2019-01-24T12:02:29.766Z,100899.73
2019-01-24T12:05:04.361Z,100906.66
2019-01-24T12:13:30.039Z,100908.91
2019-01-24T12:15:59.551Z,100909.49
2019-01-24T12:18:29.728Z,100909.97
2019-01-24T12:21:36.161Z,100910.19
2019-01-24T12:24:12.448Z,100910.87
2019-01-24T12:27:07.268Z,100910.45
2019-01-24T12:29:37.529Z,100907.81
2019-01-24T12:32:12.837Z,100906.61
2019-01-24T12:35:01.405Z,100906.77
2019-01-24T12:37:34.250Z,100905.20
2019-01-24T12:40:04.524Z,100895.38
2019-01-24T12:42:35.164Z,100895.17
2019-01-24T12:47:51.339Z,100902.00
2019-01-24T12:50:23.106Z,100905.97
2019-01-24T12:53:47.316Z,100901.92
2019-01-24T12:56:15.863Z,100895.26
2019-01-24T12:58:59.945Z,100895.19
2019-01-24T13:01:20.762Z,100889.57
2019-01-24T13:04:02.604Z,100892.92
2019-01-24T13:06:33.278Z,100890.05
2019-01-24T13:12:23.588Z,100889.57
2019-01-24T13:21:14.948Z,100896.86
2019-01-24T13:29:54.483Z,100897.70
2019-01-24T13:35:16.390Z,100906.08
2019-01-24T13:37:45.975Z,100902.28
2019-01-24T13:40:27.165Z,100910.07
2019-01-24T13:43:21.758Z,100914.00
2019-01-24T13:45:51.727Z,100907.47
2019-01-24T13:48:23.896Z,100910.92
2019-01-24T13:50:53.481Z,100904.27
2019-01-24T13:56:18.123Z,100901.04
2019-01-24T13:59:22.130Z,100909.65
2019-01-24T14:01:50.297Z,100908.22
2019-01-24T14:04:31.394Z,100910.34
2019-01-24T14:09:54.839Z,100918.60
2019-01-24T14:12:26.880Z,100922.30
2019-01-24T14:17:54.732Z,100924.22
2019-01-24T14:20:25.139Z,100916.43
2019-01-24T14:22:54.641Z,100925.63
2019-01-24T14:25:26.108Z,100922.25
2019-01-24T14:27:58.938Z,100920.69
2019-01-24T14:30:32.074Z,100926.86
2019-01-24T14:33:02.476Z,100923.14
2019-01-24T14:35:52.947Z,100929.81
2019-01-24T14:38:42.878Z,100924.67
2019-01-24T14:41:24.320Z,100926.89
2019-01-24T14:43:55.992Z,100932.83
2019-01-24T14:46:27.642Z,100934.09
2019-01-24T14:48:57.618Z,100930.48
2019-01-24T14:51:27.162Z,100939.41
2019-01-24T14:53:59.109Z,100936.25
2019-01-24T14:56:31.953Z,100940.97
2019-01-24T14:59:24.409Z,100937.39
2019-01-24T15:02:07.009Z,100948.77
2019-01-24T15:04:36.768Z,100943.36
2019-01-24T15:07:06.986Z,100950.59
2019-01-24T15:09:57.360Z,100946.50
2019-01-24T15:15:10.377Z,100954.28
2019-01-24T15:17:59.127Z,100954.36
2019-01-24T15:20:28.912Z,100953.16
2019-01-24T15:22:58.861Z,100950.34
2019-01-24T15:25:28.833Z,100962.27
2019-01-24T15:27:58.510Z,100965.52
2019-01-24T15:30:28.084Z,100967.70
2019-01-24T15:38:38.081Z,100966.14
2019-01-24T15:41:19.180Z,100966.16
2019-01-24T15:44:13.471Z,100970.14
2019-01-24T15:46:54.309Z,100969.05
2019-01-24T15:49:26.071Z,100969.76
2019-01-24T15:51:56.065Z,100974.20
2019-01-24T15:54:26.799Z,100970.28
2019-01-24T15:56:56.748Z,100972.29
2019-01-24T15:59:26.211Z,100972.33
2019-01-24T16:01:55.619Z,100974.94
2019-01-24T16:04:25.144Z,100970.68
2019-01-24T16:06:57.830Z,100977.87
2019-01-24T16:09:27.709Z,100973.14
2019-01-24T16:11:57.169Z,100970.43
2019-01-24T16:14:26.624Z,100967.34
2019-01-24T16:16:56.048Z,100972.22
2019-01-24T16:19:25.582Z,100965.97
2019-01-24T16:21:55.037Z,100967.20
2019-01-24T16:24:24.447Z,100973.25
2019-01-24T16:26:53.883Z,100971.12
2019-01-24T16:29:23.346Z,100973.72
2019-01-24T16:37:29.256Z,100975.78
2019-01-24T16:39:47.804Z,100984.62
2019-01-24T16:42:17.404Z,100987.50
2019-01-24T16:45:07.285Z,100984.17
2019-01-24T16:47:36.753Z,100984.34
2019-01-24T16:50:25.465Z,100987.67
2019-01-24T16:52:54.924Z,100989.53
2019-01-24T16:55:24.350Z,100987.13
2019-01-24T16:57:54.723Z,100985.91
2019-01-24T17:00:44.380Z,100985.63
2019-01-24T17:03:13.935Z,100987.48
2019-01-24T17:05:43.467Z,100994.46
2019-01-24T17:08:16.655Z,100992.69
2019-01-24T17:10:46.643Z,100994.46
2019-01-24T17:13:16.130Z,100991.56
2019-01-24T17:15:45.557Z,100991.27
2019-01-24T17:18:15.275Z,100998.45
2019-01-24T17:20:44.759Z,100998.16
2019-01-24T17:23:14.314Z,100994.80
2019-01-24T17:25:44.532Z,100997.88
2019-01-24T17:28:13.983Z,100994.05
2019-01-24T17:31:02.629Z,100998.42
2019-01-24T17:33:46.724Z,100996.48
2019-01-24T17:36:03.342Z,100997.11
2019-01-24T17:38:34.231Z,101002.20
2019-01-24T17:41:03.948Z,101001.44
2019-01-24T17:43:36.803Z,101000.34
2019-01-24T17:46:06.455Z,101004.33
2019-01-24T17:48:52.949Z,101002.73
2019-01-24T17:54:06.763Z,101006.89
2019-01-24T17:56:36.394Z,101010.70
2019-01-24T17:59:06.039Z,101006.96
2019-01-24T18:01:43.389Z,101009.19
2019-01-24T18:04:13.011Z,101010.79
2019-01-24T18:06:42.528Z,101011.09
2019-01-24T18:09:14.753Z,101008.28
2019-01-24T18:11:44.215Z,101014.55
2019-01-24T18:14:16.893Z,101010.02
2019-01-24T18:16:46.549Z,101011.79
2019-01-24T18:19:16.052Z,101012.92
2019-01-24T18:21:45.498Z,101015.28
2019-01-24T18:24:14.963Z,101013.23
2019-01-24T18:26:44.450Z,101011.84
2019-01-24T18:32:24.467Z,101017.44
2019-01-24T18:34:53.905Z,101013.44
2019-01-24T18:37:25.431Z,101016.22
2019-01-24T18:39:54.904Z,101012.77
2019-01-24T18:42:24.349Z,101021.06
2019-01-24T18:45:05.023Z,101025.98
2019-01-24T18:47:35.649Z,101027.66
2019-01-24T18:50:25.690Z,101037.64
2019-01-24T18:52:55.231Z,101034.10
2019-01-24T18:55:24.715Z,101038.92
2019-01-24T18:57:54.504Z,101042.55
2019-01-24T19:00:30.460Z,101044.48
2019-01-24T19:03:00.073Z,101044.30
2019-01-24T19:05:32.636Z,101047.15
2019-01-24T19:08:02.155Z,101051.23
2019-01-24T19:10:44.171Z,101052.05
2019-01-24T19:19:03.582Z,101065.70
2019-01-24T19:21:33.102Z,101072.14
2019-01-24T19:24:23.481Z,101074.05
2019-01-24T19:27:08.790Z,101078.61
2019-01-24T19:29:36.654Z,101072.52
2019-01-24T19:32:06.338Z,101079.06
2019-01-24T19:34:36.073Z,101084.22
2019-01-24T19:37:05.702Z,101089.86
2019-01-24T19:39:35.310Z,101089.03
2019-01-24T19:42:05.030Z,101080.95
2019-01-24T19:44:34.654Z,101084.62
2019-01-24T19:47:18.881Z,101086.94
2019-01-24T19:52:30.793Z,101074.65
2019-01-24T20:06:29.847Z,101078.44
2019-01-24T20:09:11.233Z,101072.12
2019-01-24T20:12:01.545Z,101083.14
2019-01-24T20:14:37.323Z,101089.94
2019-01-24T20:17:06.904Z,101083.14
2019-01-24T20:19:36.385Z,101086.22
2019-01-24T20:22:10.659Z,101084.07
2019-01-24T20:27:37.288Z,101081.00
2019-01-24T20:30:09.361Z,101079.69
2019-01-24T20:32:41.755Z,101083.52
2019-01-24T20:35:35.062Z,101083.17
2019-01-24T20:40:51.380Z,101076.75
2019-01-24T20:46:03.087Z,101076.28
2019-01-24T20:48:33.053Z,101079.99
2019-01-24T20:51:02.514Z,101086.27
2019-01-24T20:53:35.816Z,101070.02
2019-01-24T20:56:24.230Z,101072.38
2019-01-24T20:58:53.974Z,101073.94
2019-01-24T21:04:32.446Z,101072.47
2019-01-24T21:07:16.070Z,101072.62
2019-01-24T21:15:17.831Z,101078.24
2019-01-24T21:17:48.047Z,101078.88
2019-01-24T21:20:19.746Z,101079.34
2019-01-24T21:22:49.407Z,101077.57
2019-01-24T21:25:22.510Z,101078.11
2019-01-24T21:28:12.758Z,101078.95
2019-01-24T21:30:42.323Z,101079.14
2019-01-24T21:33:14.647Z,101081.75
2019-01-24T21:36:03.300Z,101079.98
2019-01-24T21:38:35.870Z,101073.63
2019-01-24T21:41:05.626Z,101068.69
2019-01-24T21:46:32.794Z,101071.55
2019-01-24T21:49:30.236Z,101066.12
2019-01-24T21:52:00.474Z,101066.59
2019-01-24T21:54:49.651Z,101069.73
2019-01-24T21:57:19.105Z,101067.31
2019-01-24T22:00:22.171Z,101067.41
2019-01-24T22:02:47.426Z,101067.83
2019-01-24T22:05:36.583Z,101064.52
2019-01-24T22:08:06.634Z,101062.92
2019-01-24T22:10:41.991Z,101060.38
2019-01-24T22:13:14.989Z,101058.66
2019-01-24T22:16:08.829Z,101048.73
2019-01-24T22:18:40.683Z,101040.31
2019-01-24T22:23:47.676Z,101046.02
2019-01-24T22:26:28.137Z,101043.03
2019-01-24T22:28:57.680Z,101040.55
2019-01-24T22:31:27.157Z,101041.13
2019-01-24T22:33:56.633Z,101042.33
2019-01-24T22:39:21.784Z,101039.98
2019-01-24T22:42:06.019Z,101038.20
2019-01-24T22:44:23.259Z,101034.08
2019-01-24T22:46:52.730Z,101034.36
2019-01-24T22:49:42.889Z,101037.81
2019-01-24T22:52:34.947Z,101029.02
2019-01-24T22:55:04.565Z,101035.94
2019-01-24T22:57:37.161Z,101035.94
2019-01-24T23:00:49.252Z,101032.84
2019-01-24T23:03:22.707Z,101029.02
2019-01-24T23:08:36.522Z,101023.87
2019-01-24T23:16:49.999Z,101013.23
2019-01-24T23:19:19.568Z,101005.27
2019-01-24T23:21:49.582Z,101005.38
2019-01-24T23:26:56.261Z,101013.45
2019-01-24T23:32:00.652Z,101008.58
2019-01-24T23:37:09.453Z,100997.63
2019-01-24T23:39:39.046Z,100998.09
2019-01-24T23:42:08.653Z,100991.92
2019-01-24T23:44:38.117Z,100986.22
2019-01-24T23:47:12.787Z,100982.75
2019-01-24T23:55:41.134Z,100971.07
2019-01-24T23:58:10.640Z,100965.52
